createdAt,value
2022-08-05T00:00:50.275Z,0.00
2022-08-05T00:01:49.546Z,0.00
2022-08-05T00:02:50.944Z,0.00
2022-08-05T00:03:49.136Z,0.00
2022-08-05T00:04:55.266Z,0.00
2022-08-05T00:06:05.524Z,0.00
2022-08-05T00:06:51.783Z,0.00
2022-08-05T00:08:00.081Z,0.00
2022-08-05T00:08:50.077Z,0.00
2022-08-05T00:09:49.048Z,0.00
2022-08-05T00:10:49.020Z,0.00
2022-08-05T00:11:55.367Z,0.00
2022-08-05T00:12:56.581Z,0.00
2022-08-05T00:13:52.895Z,0.00
2022-08-05T00:14:51.745Z,0.00
2022-08-05T00:15:55.551Z,0.00
2022-08-05T00:16:53.678Z,0.00
2022-08-05T00:17:48.918Z,0.00
2022-08-05T00:18:48.914Z,0.00
2022-08-05T00:20:02.352Z,0.00
2022-08-05T00:20:49.886Z,0.00
2022-08-05T00:21:48.880Z,0.00
2022-08-05T00:22:55.242Z,0.00
2022-08-05T00:23:53.560Z,0.00
2022-08-05T00:24:55.017Z,0.00
2022-08-05T00:25:49.827Z,0.00
2022-08-05T00:26:51.966Z,0.00
2022-08-05T00:27:48.796Z,0.00
2022-08-05T00:28:49.264Z,0.00
2022-08-05T00:29:48.808Z,0.00
2022-08-05T00:30:52.065Z,0.00
2022-08-05T00:32:10.919Z,0.00
2022-08-05T00:32:49.732Z,0.00
2022-08-05T00:34:56.351Z,0.00
2022-08-05T00:35:05.689Z,0.00
2022-08-05T00:36:16.238Z,0.00
2022-08-05T00:37:10.519Z,0.00
2022-08-05T00:37:52.921Z,0.00
2022-08-05T00:38:48.678Z,0.00
2022-08-05T00:39:58.751Z,0.00
2022-08-05T00:40:51.911Z,0.00
2022-08-05T00:41:54.868Z,0.00
2022-08-05T00:42:49.980Z,0.00
2022-08-05T00:43:49.936Z,0.00
2022-08-05T00:44:48.601Z,0.00
2022-08-05T00:45:48.620Z,0.00
2022-08-05T00:46:54.331Z,0.00
2022-08-05T00:47:57.266Z,0.00
2022-08-05T00:48:50.264Z,0.00
2022-08-05T00:49:51.737Z,0.00
2022-08-05T00:50:48.556Z,0.00
2022-08-05T00:51:50.036Z,0.00
2022-08-05T00:52:48.512Z,0.00
2022-08-05T00:54:02.319Z,0.00
2022-08-05T00:54:49.486Z,0.00
2022-08-05T00:55:48.491Z,0.00
2022-08-05T00:56:51.425Z,0.00
2022-08-05T00:57:57.890Z,0.00
2022-08-05T00:58:49.434Z,0.00
2022-08-05T00:59:48.414Z,0.00
2022-08-05T01:00:50.181Z,0.00
2022-08-05T01:01:49.310Z,0.00
2022-08-05T01:02:50.221Z,0.00
2022-08-05T01:03:48.382Z,0.00
2022-08-05T01:04:50.327Z,0.00
2022-08-05T01:05:48.357Z,0.00
2022-08-05T01:06:48.963Z,0.00
2022-08-05T01:08:41.990Z,0.00
2022-08-05T01:08:49.320Z,0.00
2022-08-05T01:09:55.759Z,0.00
2022-08-05T01:10:52.584Z,0.00
2022-08-05T01:11:48.337Z,0.00
2022-08-05T01:13:05.366Z,0.00
2022-08-05T01:13:57.332Z,0.00
2022-08-05T01:14:49.246Z,0.00
2022-08-05T01:15:48.244Z,0.00
2022-08-05T01:16:48.253Z,0.00
2022-08-05T01:17:53.816Z,0.00
2022-08-05T01:18:56.156Z,0.00
2022-08-05T01:20:02.276Z,0.00
2022-08-05T01:20:49.190Z,0.00
2022-08-05T01:21:50.582Z,0.00
2022-08-05T01:22:48.189Z,0.00
2022-08-05T01:23:53.173Z,0.00
2022-08-05T01:24:49.139Z,0.00
2022-08-05T01:25:53.418Z,0.00
2022-08-05T01:26:49.132Z,0.00
2022-08-05T01:27:55.410Z,0.00
2022-08-05T01:28:49.115Z,0.00
2022-08-05T01:29:48.070Z,0.00
2022-08-05T01:30:53.710Z,0.00
2022-08-05T01:31:49.053Z,0.00
2022-08-05T01:32:48.045Z,0.00
2022-08-05T01:33:49.198Z,0.00
2022-08-05T01:34:49.047Z,0.00
2022-08-05T01:35:53.199Z,0.00
2022-08-05T01:36:49.012Z,0.00
2022-08-05T01:37:47.983Z,0.00
2022-08-05T01:38:48.509Z,0.00
2022-08-05T01:39:48.118Z,0.00
2022-08-05T01:40:47.959Z,0.00
2022-08-05T01:41:47.934Z,0.00
2022-08-05T01:42:47.936Z,0.00
2022-08-05T01:43:48.901Z,0.00
2022-08-05T01:44:54.078Z,0.00
2022-08-05T01:45:56.534Z,0.00
2022-08-05T01:46:48.891Z,0.00
2022-08-05T01:47:47.903Z,0.00
2022-08-05T01:48:49.407Z,0.00
2022-08-05T01:50:01.923Z,0.00
2022-08-05T01:50:51.101Z,0.00
2022-08-05T01:51:51.716Z,0.00
2022-08-05T01:52:50.078Z,0.00
2022-08-05T01:53:57.516Z,0.00
2022-08-05T01:54:48.798Z,0.00
2022-08-05T01:55:47.807Z,0.00
2022-08-05T01:58:10.212Z,0.00
2022-08-05T01:58:10.465Z,0.00
2022-08-05T01:58:48.920Z,0.00
2022-08-05T01:59:47.728Z,0.00
2022-08-05T02:00:47.740Z,0.00
2022-08-05T02:01:47.743Z,0.00
2022-08-05T02:02:53.585Z,0.00
2022-08-05T02:03:48.697Z,0.00
2022-08-05T02:04:49.714Z,0.00
2022-08-05T02:05:47.678Z,0.00
2022-08-05T02:06:47.669Z,0.00
2022-08-05T02:08:00.204Z,0.00
2022-08-05T02:08:58.599Z,0.00
2022-08-05T02:09:48.622Z,0.00
2022-08-05T02:10:47.610Z,0.00
2022-08-05T02:11:48.095Z,0.00
2022-08-05T02:12:51.009Z,0.00
2022-08-05T02:13:53.165Z,0.00
2022-08-05T02:14:48.565Z,0.00
2022-08-05T02:15:47.553Z,0.00
2022-08-05T02:16:52.147Z,0.00
2022-08-05T02:18:30.925Z,0.00
2022-08-05T02:18:48.513Z,0.00
2022-08-05T02:19:47.783Z,0.00
2022-08-05T02:20:47.499Z,0.00
2022-08-05T02:21:49.083Z,0.00
2022-08-05T02:22:47.515Z,0.00
2022-08-05T02:23:47.469Z,0.00
2022-08-05T02:24:47.454Z,0.00
2022-08-05T02:25:49.061Z,0.00
2022-08-05T02:26:51.881Z,0.00
2022-08-05T02:27:58.293Z,0.00
2022-08-05T02:28:48.401Z,0.00
2022-08-05T02:29:59.927Z,0.00
2022-08-05T02:30:51.843Z,0.00
2022-08-05T02:31:48.368Z,0.00
2022-08-05T02:32:47.377Z,0.00
2022-08-05T02:33:48.445Z,0.00
2022-08-05T02:34:51.697Z,0.00
2022-08-05T02:35:49.962Z,0.00
2022-08-05T02:36:48.340Z,0.00
2022-08-05T02:37:54.008Z,0.00
2022-08-05T02:38:53.108Z,0.00
2022-08-05T02:39:51.729Z,0.00
2022-08-05T02:40:47.473Z,0.00
2022-08-05T02:42:00.748Z,0.00
2022-08-05T02:42:53.910Z,0.00
2022-08-05T02:44:02.856Z,0.00
2022-08-05T02:44:48.220Z,0.00
2022-08-05T02:45:52.848Z,0.00
2022-08-05T02:46:58.880Z,0.00
2022-08-05T02:48:07.389Z,0.00
2022-08-05T02:48:48.186Z,0.00
2022-08-05T02:49:47.166Z,0.00
2022-08-05T02:50:47.150Z,0.00
2022-08-05T02:52:03.190Z,0.00
2022-08-05T02:52:48.136Z,0.00
2022-08-05T02:53:47.139Z,0.00
2022-08-05T02:54:52.308Z,0.00
2022-08-05T02:55:54.398Z,0.00
2022-08-05T02:56:48.084Z,0.00
2022-08-05T02:58:10.466Z,0.00
2022-08-05T02:58:51.485Z,0.00
2022-08-05T02:59:50.322Z,0.00
2022-08-05T03:00:47.041Z,0.00
2022-08-05T03:01:47.072Z,0.00
2022-08-05T03:02:47.015Z,0.00
2022-08-05T03:04:03.097Z,0.00
2022-08-05T03:04:47.993Z,0.00
2022-08-05T03:06:54.301Z,0.00
2022-08-05T03:06:56.305Z,0.00
2022-08-05T03:08:06.766Z,0.00
2022-08-05T03:08:47.965Z,0.00
2022-08-05T03:09:51.744Z,0.00
2022-08-05T03:11:53.272Z,0.00
2022-08-05T03:11:54.999Z,0.00
2022-08-05T03:12:47.902Z,0.00
2022-08-05T03:13:52.156Z,0.00
2022-08-05T03:14:48.176Z,0.00
2022-08-05T03:15:46.868Z,0.00
2022-08-05T03:16:46.852Z,0.00
2022-08-05T03:17:46.955Z,0.00
2022-08-05T03:18:46.834Z,0.00
2022-08-05T03:19:46.848Z,0.00
2022-08-05T03:20:48.846Z,0.00
2022-08-05T03:21:48.885Z,0.00
2022-08-05T03:22:49.989Z,0.00
2022-08-05T03:23:46.776Z,0.00
2022-08-05T03:24:46.988Z,0.00
2022-08-05T03:26:03.855Z,0.00
2022-08-05T03:26:49.447Z,0.00
2022-08-05T03:27:59.380Z,0.00
2022-08-05T03:28:47.706Z,0.00
2022-08-05T03:30:07.609Z,0.00
2022-08-05T03:30:47.707Z,0.00
2022-08-05T03:31:57.280Z,0.00
2022-08-05T03:32:47.665Z,0.00
2022-08-05T03:33:52.892Z,0.00
2022-08-05T03:34:51.320Z,0.00
2022-08-05T03:35:46.652Z,0.00
2022-08-05T03:36:46.618Z,0.00
2022-08-05T03:37:46.963Z,0.00
2022-08-05T03:38:52.524Z,0.00
2022-08-05T03:39:59.487Z,0.00
2022-08-05T03:40:48.624Z,0.00
2022-08-05T03:41:46.952Z,0.00
2022-08-05T03:42:52.040Z,0.00
2022-08-05T03:44:08.041Z,0.00
2022-08-05T03:44:47.532Z,0.00
2022-08-05T03:45:57.330Z,0.00
2022-08-05T03:46:47.502Z,0.00
2022-08-05T03:47:46.492Z,0.00
2022-08-05T03:48:46.747Z,0.00
2022-08-05T03:49:52.004Z,0.00
2022-08-05T03:50:47.485Z,0.00
2022-08-05T03:52:38.780Z,0.00
2022-08-05T03:55:07.179Z,0.00
2022-08-05T03:55:50.505Z,0.00
2022-08-05T03:55:50.982Z,0.00
2022-08-05T03:56:04.296Z,0.00
2022-08-05T03:56:47.403Z,0.00
2022-08-05T03:57:46.596Z,0.00
2022-08-05T03:58:46.364Z,0.00
2022-08-05T03:59:47.478Z,0.00
2022-08-05T04:00:51.391Z,0.00
2022-08-05T04:01:46.368Z,0.00
2022-08-05T04:02:57.789Z,0.00
2022-08-05T04:04:09.418Z,0.00
2022-08-05T04:04:47.295Z,0.00
2022-08-05T04:05:46.299Z,4.00
2022-08-05T04:06:47.970Z,4.00
2022-08-05T04:07:57.615Z,4.00
2022-08-05T04:08:48.589Z,0.00
2022-08-05T04:09:53.182Z,0.00
2022-08-05T04:10:47.225Z,4.00
2022-08-05T04:11:50.810Z,4.00
2022-08-05T04:12:48.248Z,4.00
2022-08-05T04:13:49.727Z,4.00
2022-08-05T04:14:47.180Z,4.00
2022-08-05T04:16:03.026Z,4.00
2022-08-05T04:16:47.216Z,4.00
2022-08-05T04:17:56.673Z,8.00
2022-08-05T04:18:47.598Z,8.00
2022-08-05T04:19:47.118Z,8.00
2022-08-05T04:20:47.111Z,12.00
2022-08-05T04:22:08.236Z,8.00
2022-08-05T04:22:47.079Z,12.00
2022-08-05T04:23:57.109Z,12.00
2022-08-05T04:24:52.457Z,16.00
2022-08-05T04:26:00.467Z,16.00
2022-08-05T04:26:47.134Z,16.00
2022-08-05T04:27:56.810Z,20.00
2022-08-05T04:28:51.972Z,20.00
2022-08-05T04:29:47.003Z,20.00
2022-08-05T04:30:45.987Z,24.00
2022-08-05T04:31:48.333Z,24.00
2022-08-05T04:32:45.987Z,24.00
2022-08-05T04:34:17.450Z,24.00
2022-08-05T04:34:46.949Z,24.00
2022-08-05T04:36:16.342Z,24.00
2022-08-05T04:36:50.113Z,24.00
2022-08-05T04:38:02.567Z,24.00
2022-08-05T04:38:46.919Z,24.00
2022-08-05T04:39:52.602Z,24.00
2022-08-05T04:40:50.602Z,28.00
2022-08-05T04:41:45.867Z,28.00
2022-08-05T04:42:46.287Z,32.00
2022-08-05T04:43:46.574Z,32.00
2022-08-05T04:44:45.830Z,32.00
2022-08-05T04:45:48.177Z,32.00
2022-08-05T04:46:47.083Z,36.00
2022-08-05T04:47:47.266Z,40.00
2022-08-05T04:48:45.787Z,44.00
2022-08-05T04:50:01.634Z,44.00
2022-08-05T04:51:01.979Z,52.00
2022-08-05T04:51:46.754Z,64.00
2022-08-05T04:52:45.731Z,76.00
2022-08-05T04:53:45.741Z,88.00
2022-08-05T04:54:45.717Z,92.00
2022-08-05T04:56:15.025Z,108.00
2022-08-05T04:56:46.703Z,120.00
2022-08-05T04:57:47.809Z,128.00
2022-08-05T04:58:46.675Z,148.00
2022-08-05T04:59:47.984Z,164.00
2022-08-05T05:00:45.641Z,176.00
2022-08-05T05:02:07.254Z,180.00
2022-08-05T05:02:46.660Z,188.00
2022-08-05T05:03:45.606Z,200.00
2022-08-05T05:04:49.747Z,216.00
2022-08-05T05:06:39.034Z,228.00
2022-08-05T05:06:51.861Z,244.00
2022-08-05T05:07:52.958Z,252.00
2022-08-05T05:08:50.049Z,252.00
2022-08-05T05:09:45.573Z,244.00
2022-08-05T05:10:55.816Z,212.00
2022-08-05T05:11:55.658Z,180.00
2022-08-05T05:12:46.503Z,164.00
2022-08-05T05:13:45.485Z,156.00
2022-08-05T05:14:50.735Z,148.00
2022-08-05T05:15:56.510Z,152.00
2022-08-05T05:16:46.457Z,156.00
2022-08-05T05:17:55.853Z,160.00
2022-08-05T05:19:16.518Z,164.00
2022-08-05T05:19:47.355Z,172.00
2022-08-05T05:20:45.935Z,172.00
2022-08-05T05:21:46.420Z,172.00
2022-08-05T05:22:45.397Z,168.00
2022-08-05T05:24:04.145Z,172.00
2022-08-05T05:24:57.687Z,172.00
2022-08-05T05:25:46.348Z,176.00
2022-08-05T05:26:46.513Z,176.00
2022-08-05T05:27:53.701Z,176.00
2022-08-05T05:28:46.317Z,176.00
2022-08-05T05:30:04.434Z,176.00
2022-08-05T05:30:49.811Z,176.00
2022-08-05T05:31:46.287Z,180.00
2022-08-05T05:32:45.275Z,172.00
2022-08-05T05:33:59.860Z,164.00
2022-08-05T05:34:46.254Z,164.00
2022-08-05T05:35:45.263Z,144.00
2022-08-05T05:36:45.666Z,120.00
2022-08-05T05:37:59.726Z,108.00
2022-08-05T05:38:46.202Z,84.00
2022-08-05T05:39:45.293Z,60.00
2022-08-05T05:40:49.745Z,48.00
2022-08-05T05:41:46.166Z,44.00
2022-08-05T05:42:47.005Z,48.00
2022-08-05T05:43:56.745Z,60.00
2022-08-05T05:44:46.164Z,80.00
2022-08-05T05:45:48.208Z,124.00
2022-08-05T05:46:45.110Z,188.00
2022-08-05T05:48:07.047Z,244.00
2022-08-05T05:48:46.331Z,252.00
2022-08-05T05:49:45.068Z,264.00
2022-08-05T05:50:46.076Z,228.00
2022-08-05T05:51:50.690Z,156.00
2022-08-05T05:52:46.491Z,120.00
2022-08-05T05:53:54.414Z,96.00
2022-08-05T05:54:51.050Z,84.00
2022-08-05T05:55:52.311Z,84.00
2022-08-05T05:56:45.999Z,96.00
2022-08-05T05:57:52.654Z,112.00
2022-08-05T05:58:45.972Z,128.00
2022-08-05T05:59:44.956Z,116.00
2022-08-05T06:00:45.918Z,100.00
2022-08-05T06:01:57.135Z,92.00
2022-08-05T06:02:45.924Z,92.00
2022-08-05T06:04:00.522Z,92.00
2022-08-05T06:04:49.105Z,96.00
2022-08-05T06:05:44.888Z,100.00
2022-08-05T06:06:46.739Z,104.00
2022-08-05T06:08:01.155Z,112.00
2022-08-05T06:08:49.243Z,128.00
2022-08-05T06:10:00.062Z,144.00
2022-08-05T06:10:52.505Z,164.00
2022-08-05T06:11:59.290Z,188.00
2022-08-05T06:12:45.816Z,212.00
2022-08-05T06:13:53.700Z,240.00
2022-08-05T06:14:45.790Z,276.00
2022-08-05T06:16:30.335Z,340.00
2022-08-05T06:16:45.778Z,404.00
2022-08-05T06:17:53.553Z,440.00
2022-08-05T06:18:45.732Z,476.00
2022-08-05T06:19:45.346Z,508.00
2022-08-05T06:20:47.675Z,448.00
2022-08-05T06:21:49.436Z,332.00
2022-08-05T06:22:45.704Z,240.00
2022-08-05T06:23:44.671Z,192.00
2022-08-05T06:24:48.141Z,200.00
2022-08-05T06:26:12.919Z,204.00
2022-08-05T06:26:51.343Z,212.00
2022-08-05T06:28:10.685Z,228.00
2022-08-05T06:28:45.631Z,244.00
2022-08-05T06:29:49.268Z,264.00
2022-08-05T06:30:45.591Z,292.00
2022-08-05T06:31:44.583Z,344.00
2022-08-05T06:32:44.571Z,436.00
2022-08-05T06:34:06.934Z,572.00
2022-08-05T06:34:45.564Z,720.00
2022-08-05T06:36:03.658Z,784.00
2022-08-05T06:36:57.023Z,788.00
2022-08-05T06:37:56.671Z,812.00
2022-08-05T06:38:47.166Z,888.00
2022-08-05T06:39:44.551Z,948.00
2022-08-05T06:40:44.863Z,992.00
2022-08-05T06:41:44.455Z,1036.00
2022-08-05T06:42:44.472Z,1036.00
2022-08-05T06:43:59.228Z,1040.00
2022-08-05T06:44:45.445Z,1044.00
2022-08-05T06:46:03.708Z,1060.00
2022-08-05T06:46:45.403Z,1092.00
2022-08-05T06:48:44.294Z,1116.00
2022-08-05T06:48:55.279Z,1096.00
2022-08-05T06:50:01.794Z,1088.00
2022-08-05T06:50:45.372Z,1064.00
2022-08-05T06:51:44.375Z,988.00
2022-08-05T06:52:44.384Z,920.00
2022-08-05T06:53:45.325Z,840.00
2022-08-05T06:54:45.331Z,808.00
2022-08-05T06:55:45.306Z,828.00
2022-08-05T06:56:54.801Z,880.00
2022-08-05T06:57:57.565Z,948.00
2022-08-05T06:58:46.801Z,1052.00
2022-08-05T06:59:48.558Z,1192.00
2022-08-05T07:00:45.293Z,1456.00
2022-08-05T07:01:44.300Z,1396.00
2022-08-05T07:02:44.229Z,1208.00
2022-08-05T07:03:44.269Z,1144.00
2022-08-05T07:04:44.196Z,1040.00
2022-08-05T07:05:44.202Z,948.00
2022-08-05T07:06:44.174Z,976.00
2022-08-05T07:07:44.409Z,1092.00
2022-08-05T07:08:47.813Z,1204.00
2022-08-05T07:09:45.140Z,1288.00
2022-08-05T07:10:53.048Z,1264.00
2022-08-05T07:11:49.572Z,1292.00
2022-08-05T07:12:48.957Z,1416.00
2022-08-05T07:13:59.538Z,1840.00
2022-08-05T07:14:45.069Z,2440.00
2022-08-05T07:16:01.133Z,2880.00
2022-08-05T07:17:56.690Z,3024.00
2022-08-05T07:18:02.123Z,3808.00
2022-08-05T07:18:47.883Z,3992.00
2022-08-05T07:20:45.019Z,2476.00
2022-08-05T07:22:00.463Z,2244.00
2022-08-05T07:22:45.732Z,1736.00
2022-08-05T07:23:49.891Z,1492.00
2022-08-05T07:24:52.450Z,1316.00
2022-08-05T07:25:55.120Z,1120.00
2022-08-05T07:26:44.959Z,852.00
2022-08-05T07:27:56.358Z,676.00
2022-08-05T07:28:44.914Z,608.00
2022-08-05T07:30:27.725Z,592.00
2022-08-05T07:30:44.890Z,572.00
2022-08-05T07:31:54.524Z,476.00
2022-08-05T07:32:44.892Z,460.00
2022-08-05T07:33:44.893Z,456.00
2022-08-05T07:34:43.849Z,536.00
2022-08-05T07:36:03.087Z,608.00
2022-08-05T07:36:44.826Z,696.00
2022-08-05T07:37:43.836Z,756.00
2022-08-05T07:38:44.266Z,708.00
2022-08-05T07:40:26.752Z,688.00
2022-08-05T07:40:44.823Z,728.00
2022-08-05T07:42:07.861Z,680.00
2022-08-05T07:42:44.776Z,616.00
2022-08-05T07:43:43.787Z,564.00
2022-08-05T07:44:43.732Z,556.00
2022-08-05T07:45:56.394Z,580.00
2022-08-05T07:46:48.250Z,628.00
2022-08-05T07:47:43.713Z,664.00
2022-08-05T07:49:02.439Z,640.00
2022-08-05T07:49:54.497Z,648.00
2022-08-05T07:50:44.665Z,616.00
2022-08-05T07:51:53.550Z,592.00
2022-08-05T07:52:44.635Z,640.00
2022-08-05T07:53:50.030Z,684.00
2022-08-05T07:54:49.089Z,716.00
2022-08-05T07:55:46.666Z,736.00
2022-08-05T07:57:13.788Z,752.00
2022-08-05T07:57:56.351Z,744.00
2022-08-05T07:58:57.322Z,732.00
2022-08-05T07:59:44.570Z,780.00
2022-08-05T08:00:43.604Z,684.00
2022-08-05T08:01:52.460Z,720.00
2022-08-05T08:03:14.084Z,760.00
2022-08-05T08:03:45.095Z,792.00
2022-08-05T08:04:44.823Z,816.00
2022-08-05T08:05:49.311Z,840.00
2022-08-05T08:06:44.474Z,892.00
2022-08-05T08:07:59.630Z,952.00
2022-08-05T08:08:44.465Z,920.00
2022-08-05T08:09:43.465Z,972.00
2022-08-05T08:10:43.436Z,1024.00
2022-08-05T08:11:47.869Z,1040.00
2022-08-05T08:12:49.396Z,1084.00
2022-08-05T08:13:49.517Z,1132.00
2022-08-05T08:14:46.763Z,1152.00
2022-08-05T08:16:34.906Z,1192.00
2022-08-05T08:16:51.229Z,1120.00
2022-08-05T08:17:46.133Z,1092.00
2022-08-05T08:18:49.903Z,1156.00
2022-08-05T08:20:22.695Z,1072.00
2022-08-05T08:21:02.475Z,904.00
2022-08-05T08:21:44.305Z,852.00
2022-08-05T08:22:43.309Z,812.00
2022-08-05T08:24:03.101Z,844.00
2022-08-05T08:24:51.920Z,984.00
2022-08-05T08:26:00.787Z,980.00
2022-08-05T08:26:44.257Z,972.00
2022-08-05T08:27:47.453Z,920.00
2022-08-05T08:28:59.535Z,884.00
2022-08-05T08:30:06.501Z,884.00
2022-08-05T08:30:48.024Z,860.00
2022-08-05T08:31:44.198Z,884.00
2022-08-05T08:32:43.184Z,868.00
2022-08-05T08:33:43.178Z,816.00
2022-08-05T08:34:43.199Z,728.00
2022-08-05T08:35:53.929Z,660.00
2022-08-05T08:36:47.553Z,748.00
2022-08-05T08:37:45.137Z,772.00
2022-08-05T08:38:43.132Z,860.00
2022-08-05T08:39:49.353Z,1064.00
2022-08-05T08:40:50.470Z,1252.00
2022-08-05T08:41:52.215Z,1472.00
2022-08-05T08:42:50.296Z,1548.00
2022-08-05T08:45:22.265Z,1724.00
2022-08-05T08:45:23.097Z,1764.00
2022-08-05T08:45:44.031Z,1624.00
2022-08-05T08:46:43.036Z,1984.00
2022-08-05T08:48:05.721Z,3124.00
2022-08-05T08:49:07.918Z,2792.00
2022-08-05T08:50:14.162Z,2460.00
2022-08-05T08:51:03.665Z,2608.00
2022-08-05T08:52:03.098Z,2632.00
2022-08-05T08:52:51.528Z,1512.00
2022-08-05T08:53:45.060Z,1348.00
2022-08-05T08:54:42.939Z,1196.00
2022-08-05T08:56:03.512Z,1160.00
2022-08-05T08:56:47.560Z,1236.00
2022-08-05T08:57:58.154Z,1320.00
2022-08-05T08:58:47.996Z,1216.00
2022-08-05T08:59:47.352Z,1040.00
2022-08-05T09:00:44.550Z,948.00
2022-08-05T09:01:42.849Z,1048.00
2022-08-05T09:02:42.857Z,1096.00
2022-08-05T09:03:45.226Z,1168.00
2022-08-05T09:04:58.146Z,1088.00
2022-08-05T09:06:07.549Z,1144.00
2022-08-05T09:06:43.786Z,1508.00
2022-08-05T09:07:57.729Z,1472.00
2022-08-05T09:08:43.755Z,1276.00
2022-08-05T09:09:42.760Z,1256.00
2022-08-05T09:10:42.777Z,1108.00
2022-08-05T09:11:50.806Z,960.00
2022-08-05T09:12:43.717Z,828.00
2022-08-05T09:14:01.068Z,748.00
2022-08-05T09:14:57.233Z,908.00
2022-08-05T09:15:43.689Z,908.00
2022-08-05T09:16:42.676Z,748.00
2022-08-05T09:17:49.495Z,612.00
2022-08-05T09:18:43.659Z,468.00
2022-08-05T09:20:01.896Z,380.00
2022-08-05T09:20:43.668Z,360.00
2022-08-05T09:22:22.997Z,412.00
2022-08-05T09:22:43.620Z,532.00
2022-08-05T09:23:43.945Z,872.00
2022-08-05T09:24:42.569Z,1004.00
2022-08-05T09:26:01.829Z,1252.00
2022-08-05T09:26:43.818Z,1128.00
2022-08-05T09:28:03.934Z,920.00
2022-08-05T09:28:43.541Z,1068.00
2022-08-05T09:29:44.712Z,1060.00
2022-08-05T09:30:43.550Z,1284.00
2022-08-05T09:32:42.351Z,1352.00
2022-08-05T09:32:46.411Z,1104.00
2022-08-05T09:33:42.491Z,1068.00
2022-08-05T09:34:42.460Z,1024.00
2022-08-05T09:35:42.453Z,900.00
2022-08-05T09:36:45.704Z,892.00
2022-08-05T09:38:16.440Z,1060.00
2022-08-05T09:38:43.424Z,1200.00
2022-08-05T09:39:46.908Z,1304.00
2022-08-05T09:40:44.476Z,1452.00
2022-08-05T09:41:43.412Z,1528.00
2022-08-05T09:42:43.352Z,1928.00
2022-08-05T09:43:43.357Z,2572.00
2022-08-05T09:44:43.357Z,2320.00
2022-08-05T09:46:07.339Z,2080.00
2022-08-05T09:46:51.772Z,2036.00
2022-08-05T09:47:55.215Z,1692.00
2022-08-05T09:48:43.295Z,1400.00
2022-08-05T09:50:01.151Z,1240.00
2022-08-05T09:50:44.295Z,1340.00
2022-08-05T09:51:42.267Z,1544.00
2022-08-05T09:52:45.144Z,1660.00
2022-08-05T09:53:53.461Z,1724.00
2022-08-05T09:54:43.237Z,1712.00
2022-08-05T09:55:58.643Z,1932.00
2022-08-05T09:56:51.497Z,2072.00
2022-08-05T09:57:43.424Z,2132.00
2022-08-05T09:58:42.463Z,2348.00
2022-08-05T09:59:42.167Z,2304.00
2022-08-05T10:00:42.176Z,2100.00
2022-08-05T10:01:45.780Z,1984.00
2022-08-05T10:02:42.158Z,1960.00
2022-08-05T10:03:58.804Z,1944.00
2022-08-05T10:04:43.111Z,1644.00
2022-08-05T10:05:42.134Z,1288.00
2022-08-05T10:06:54.664Z,984.00
2022-08-05T10:08:35.203Z,864.00
2022-08-05T10:08:43.061Z,712.00
2022-08-05T10:09:44.908Z,704.00
2022-08-05T10:10:42.049Z,772.00
2022-08-05T10:11:42.069Z,752.00
2022-08-05T10:12:49.603Z,952.00
2022-08-05T10:13:46.283Z,1060.00
2022-08-05T10:14:42.996Z,1020.00
2022-08-05T10:15:41.991Z,800.00
2022-08-05T10:16:52.899Z,640.00
2022-08-05T10:17:47.183Z,592.00
2022-08-05T10:18:42.975Z,696.00
2022-08-05T10:20:04.399Z,1028.00
2022-08-05T10:20:42.957Z,1116.00
2022-08-05T10:21:41.937Z,1540.00
2022-08-05T10:22:48.669Z,1832.00
2022-08-05T10:23:59.706Z,1996.00
2022-08-05T10:24:42.886Z,1940.00
2022-08-05T10:25:41.871Z,1920.00
2022-08-05T10:26:51.637Z,1864.00
2022-08-05T10:28:12.698Z,1792.00
2022-08-05T10:28:42.942Z,1656.00
2022-08-05T10:30:06.676Z,1568.00
2022-08-05T10:32:52.111Z,1756.00
2022-08-05T10:32:53.045Z,1568.00
2022-08-05T10:32:53.046Z,1432.00
2022-08-05T10:33:42.785Z,2084.00
2022-08-05T10:34:41.799Z,2452.00
2022-08-05T10:35:44.366Z,2264.00
2022-08-05T10:36:41.753Z,2384.00
2022-08-05T10:37:44.899Z,2440.00
2022-08-05T10:38:44.993Z,2348.00
2022-08-05T10:39:59.089Z,2336.00
2022-08-05T10:40:43.525Z,2256.00
2022-08-05T10:41:46.757Z,1988.00
2022-08-05T10:42:43.824Z,1776.00
2022-08-05T10:43:41.667Z,1564.00
2022-08-05T10:44:41.959Z,1372.00
2022-08-05T10:45:42.431Z,1256.00
2022-08-05T10:46:41.631Z,1288.00
2022-08-05T10:47:41.647Z,1132.00
2022-08-05T10:48:52.544Z,840.00
2022-08-05T10:49:49.044Z,596.00
2022-08-05T10:50:42.602Z,472.00
2022-08-05T10:51:53.155Z,456.00
2022-08-05T10:52:49.666Z,468.00
2022-08-05T10:53:45.366Z,472.00
2022-08-05T10:54:47.201Z,540.00
2022-08-05T10:56:05.298Z,560.00
2022-08-05T10:56:42.545Z,600.00
2022-08-05T10:57:41.501Z,612.00
2022-08-05T10:58:49.555Z,584.00
2022-08-05T11:00:02.794Z,556.00
2022-08-05T11:00:44.051Z,512.00
2022-08-05T11:01:54.861Z,468.00
2022-08-05T11:02:43.537Z,388.00
2022-08-05T11:03:42.490Z,328.00
2022-08-05T11:04:41.435Z,292.00
2022-08-05T11:05:41.413Z,304.00
2022-08-05T11:06:41.402Z,324.00
2022-08-05T11:08:02.439Z,320.00
2022-08-05T11:08:42.418Z,308.00
2022-08-05T11:09:45.400Z,312.00
2022-08-05T11:10:50.383Z,300.00
2022-08-05T11:11:52.440Z,288.00
2022-08-05T11:12:42.339Z,296.00
2022-08-05T11:13:57.587Z,328.00
2022-08-05T11:15:11.894Z,380.00
2022-08-05T11:15:59.173Z,444.00
2022-08-05T11:16:47.835Z,524.00
2022-08-05T11:18:07.544Z,616.00
2022-08-05T11:18:46.945Z,672.00
2022-08-05T11:20:11.016Z,576.00
2022-08-05T11:20:43.812Z,488.00
2022-08-05T11:21:49.376Z,396.00
2022-08-05T11:22:42.534Z,384.00
2022-08-05T11:24:04.264Z,380.00
2022-08-05T11:24:42.217Z,396.00
2022-08-05T11:26:05.144Z,404.00
2022-08-05T11:26:43.547Z,372.00
2022-08-05T11:27:51.776Z,348.00
2022-08-05T11:28:42.176Z,372.00
2022-08-05T11:29:41.153Z,400.00
2022-08-05T11:30:41.163Z,408.00
2022-08-05T11:31:56.778Z,416.00
2022-08-05T11:32:42.101Z,416.00
2022-08-05T11:33:46.057Z,444.00
2022-08-05T11:34:51.887Z,424.00
2022-08-05T11:36:07.644Z,416.00
2022-08-05T11:36:42.796Z,452.00
2022-08-05T11:38:27.909Z,496.00
2022-08-05T11:38:45.326Z,544.00
2022-08-05T11:39:41.084Z,552.00
2022-08-05T11:40:42.037Z,528.00
2022-08-05T11:41:57.933Z,472.00
2022-08-05T11:42:41.987Z,592.00
2022-08-05T11:44:04.420Z,604.00
2022-08-05T11:44:53.594Z,560.00
2022-08-05T11:46:27.301Z,512.00
2022-08-05T11:46:58.385Z,576.00
2022-08-05T11:47:49.340Z,696.00
2022-08-05T11:48:41.966Z,684.00
2022-08-05T11:49:42.836Z,584.00
2022-08-05T11:50:40.902Z,564.00
2022-08-05T11:51:44.616Z,580.00
2022-08-05T11:52:44.092Z,660.00
2022-08-05T11:53:42.004Z,644.00
2022-08-05T11:54:41.345Z,668.00
2022-08-05T11:55:40.844Z,744.00
2022-08-05T11:56:41.335Z,648.00
2022-08-05T11:58:10.935Z,644.00
2022-08-05T11:58:41.806Z,660.00
2022-08-05T11:59:50.175Z,616.00
2022-08-05T12:00:44.224Z,556.00
2022-08-05T12:01:41.775Z,532.00
2022-08-05T12:02:40.813Z,520.00
2022-08-05T12:03:40.829Z,556.00
2022-08-05T12:04:40.737Z,580.00
2022-08-05T12:05:43.633Z,836.00
2022-08-05T12:06:40.724Z,844.00
2022-08-05T12:08:09.186Z,972.00
2022-08-05T12:08:50.077Z,984.00
2022-08-05T12:09:53.344Z,856.00
2022-08-05T12:10:46.120Z,824.00
2022-08-05T12:11:41.713Z,820.00
2022-08-05T12:12:59.135Z,776.00
2022-08-05T12:13:48.678Z,1032.00
2022-08-05T12:14:43.325Z,1208.00
2022-08-05T12:15:41.594Z,1448.00
2022-08-05T12:16:40.594Z,1632.00
2022-08-05T12:18:04.187Z,1644.00
2022-08-05T12:18:42.609Z,1640.00
2022-08-05T12:20:26.217Z,1760.00
2022-08-05T12:20:41.570Z,1612.00
2022-08-05T12:21:40.526Z,1248.00
2022-08-05T12:22:40.612Z,1008.00
2022-08-05T12:23:42.951Z,920.00
2022-08-05T12:24:40.492Z,856.00
2022-08-05T12:25:40.482Z,824.00
2022-08-05T12:26:43.893Z,748.00
2022-08-05T12:27:52.788Z,700.00
2022-08-05T12:28:41.493Z,652.00
2022-08-05T12:29:40.430Z,592.00
2022-08-05T12:30:45.742Z,556.00
2022-08-05T12:31:48.185Z,588.00
2022-08-05T12:32:41.400Z,680.00
2022-08-05T12:33:40.382Z,712.00
2022-08-05T12:34:40.402Z,752.00
2022-08-05T12:35:40.363Z,788.00
2022-08-05T12:36:40.404Z,888.00
2022-08-05T12:37:40.408Z,904.00
2022-08-05T12:38:41.377Z,948.00
2022-08-05T12:39:40.371Z,1244.00
2022-08-05T12:40:43.612Z,1400.00
2022-08-05T12:41:43.704Z,1544.00
2022-08-05T12:42:40.292Z,1568.00